Time;durP1;ratioP1;P1;durP2;ratioP2;P2;SDS_P1;SDS_P2;PMS_P1;PMS_P2;Temp;Humidity;BMP_temperature;BMP_pressure;BME280_temperature;BME280_humidity;BME280_pressure;Samples;Min_cycle;Max_cycle;Signal;HPM_P1;HPM_P2
2023/08/08 00:02:07;;;;;;;7.03;3.50;;;14.40;99.90;;;;;;5073063;28;20651;-79
2023/08/08 00:04:33;;;;;;;6.57;3.20;;;14.40;99.90;;;;;;5073270;28;20225;-80
2023/08/08 00:06:59;;;;;;;6.23;3.47;;;14.30;99.90;;;;;;5073122;28;20204;-80
2023/08/08 00:09:24;;;;;;;6.67;3.40;;;14.30;99.90;;;;;;5074649;28;20549;-79
2023/08/08 00:11:50;;;;;;;15.50;3.77;;;14.30;99.90;;;;;;5076631;28;20255;-80
2023/08/08 00:14:16;;;;;;;5.27;3.50;;;14.30;99.90;;;;;;5076960;28;20500;-80
2023/08/08 00:16:41;;;;;;;4.33;3.33;;;14.20;99.90;;;;;;5076960;28;20173;-79
2023/08/08 00:19:07;;;;;;;7.33;3.97;;;14.20;99.90;;;;;;5077102;28;20570;-80
2023/08/08 00:21:33;;;;;;;8.40;3.73;;;14.20;99.90;;;;;;5077102;28;20195;-80
2023/08/08 00:23:58;;;;;;;5.00;3.70;;;14.20;99.90;;;;;;5075665;28;20168;-80
2023/08/08 00:26:24;;;;;;;7.07;3.50;;;14.20;99.90;;;;;;5076594;28;20212;-80
2023/08/08 00:28:50;;;;;;;8.40;3.73;;;14.20;99.90;;;;;;5076845;28;20161;-80
2023/08/08 00:31:17;;;;;;;5.90;3.50;;;14.10;99.90;;;;;;5076977;28;20207;-79
2023/08/08 00:33:43;;;;;;;5.40;3.40;;;14.20;99.90;;;;;;5076741;28;20207;-79
2023/08/08 00:36:08;;;;;;;8.30;3.53;;;14.10;99.90;;;;;;5076447;28;20204;-79
2023/08/08 00:38:34;;;;;;;8.03;3.57;;;14.10;99.90;;;;;;5076684;28;20165;-80
2023/08/08 00:41:00;;;;;;;5.10;3.80;;;14.10;99.90;;;;;;5075776;28;20216;-79
2023/08/08 00:43:25;;;;;;;4.80;3.73;;;14.00;99.90;;;;;;5076637;28;20259;-79
2023/08/08 00:45:51;;;;;;;6.50;3.97;;;14.00;99.90;;;;;;5076448;28;20176;-79
2023/08/08 00:48:19;;;;;;;6.63;3.90;;;14.00;99.90;;;;;;5076407;28;20184;-79
2023/08/08 00:50:45;;;;;;;7.33;4.27;;;13.90;99.90;;;;;;5076406;28;20169;-80
2023/08/08 00:53:11;;;;;;;6.03;3.80;;;14.00;99.90;;;;;;5076316;28;20192;-80
2023/08/08 00:55:38;;;;;;;6.93;3.80;;;13.90;99.90;;;;;;5075827;28;20727;-79
2023/08/08 00:58:04;;;;;;;8.80;4.70;;;13.90;99.90;;;;;;5076316;28;20184;-79
2023/08/08 01:00:30;;;;;;;7.20;4.00;;;13.90;99.90;;;;;;5076285;28;20225;-80
2023/08/08 01:02:55;;;;;;;9.47;3.93;;;13.90;99.90;;;;;;5076291;28;20658;-80
2023/08/08 01:05:21;;;;;;;10.33;4.30;;;13.90;99.90;;;;;;5076171;28;20203;-79
2023/08/08 01:07:53;;;;;;;8.83;4.30;;;13.80;99.90;;;;;;5076225;28;20698;-79
2023/08/08 01:10:33;;;;;;;9.33;4.77;;;13.80;99.90;;;;;;5075603;28;20184;-80
2023/08/08 01:13:10;;;;;;;9.13;4.40;;;13.80;99.90;;;;;;5076129;28;20179;-80
2023/08/08 01:15:37;;;;;;;10.97;4.57;;;13.80;99.90;;;;;;5076030;28;20198;-79
2023/08/08 01:18:08;;;;;;;6.17;4.60;;;13.70;99.90;;;;;;5076349;28;20263;-80
2023/08/08 01:20:34;;;;;;;8.37;4.57;;;13.70;99.90;;;;;;5075551;28;20167;-81
2023/08/08 01:23:15;;;;;;;10.03;4.77;;;13.70;99.90;;;;;;5075641;28;20196;-80
2023/08/08 01:25:41;;;;;;;11.27;5.07;;;13.80;99.90;;;;;;5075886;28;20265;-79
2023/08/08 01:28:07;;;;;;;9.90;5.17;;;13.70;99.90;;;;;;5075886;28;20262;-80
2023/08/08 01:30:33;;;;;;;9.07;4.93;;;13.70;99.90;;;;;;5075843;28;20191;-79
2023/08/08 01:32:59;;;;;;;8.10;4.87;;;13.70;99.90;;;;;;5075653;28;20168;-79
2023/08/08 01:35:29;;;;;;;9.93;4.83;;;13.70;99.90;;;;;;5074231;28;20565;-79
2023/08/08 01:38:04;;;;;;;11.40;5.20;;;13.70;99.90;;;;;;5075308;28;20205;-80
2023/08/08 01:40:31;;;;;;;9.10;5.00;;;13.70;99.90;;;;;;5075767;28;20164;-80
2023/08/08 01:42:58;;;;;;;8.30;5.17;;;13.60;99.90;;;;;;5075564;28;20229;-80
2023/08/08 01:45:24;;;;;;;8.80;4.97;;;13.60;99.90;;;;;;5075639;28;20264;-80
2023/08/08 01:47:51;;;;;;;17.57;5.10;;;13.70;99.90;;;;;;5075509;28;20694;-80
2023/08/08 01:50:17;;;;;;;9.57;5.00;;;13.60;99.90;;;;;;5075238;28;20219;-79
2023/08/08 01:52:43;;;;;;;10.37;4.83;;;13.60;99.90;;;;;;5075071;28;20177;-79
2023/08/08 01:55:09;;;;;;;9.13;4.90;;;13.60;99.90;;;;;;5075156;28;20168;-80
2023/08/08 01:57:34;;;;;;;10.87;5.07;;;13.70;99.90;;;;;;5075216;28;20176;-79
2023/08/08 02:00:00;;;;;;;11.57;5.07;;;13.60;99.90;;;;;;5075519;28;20643;-80
2023/08/08 02:02:26;;;;;;;11.10;5.30;;;13.70;99.90;;;;;;5075381;28;20251;-79
2023/08/08 02:04:52;;;;;;;10.03;4.97;;;13.70;99.90;;;;;;5075381;28;20222;-79
2023/08/08 02:07:18;;;;;;;14.57;5.10;;;13.80;99.90;;;;;;5075241;28;20675;-79
2023/08/08 02:09:45;;;;;;;9.10;5.20;;;13.80;99.90;;;;;;5075145;28;20616;-79
2023/08/08 02:12:11;;;;;;;12.13;4.90;;;13.80;99.90;;;;;;5075219;28;20210;-79
2023/08/08 02:14:37;;;;;;;11.33;5.20;;;13.70;99.90;;;;;;5074917;28;20658;-79
2023/08/08 02:17:03;;;;;;;9.73;5.17;;;13.70;99.90;;;;;;5075284;28;20241;-80
2023/08/08 02:19:29;;;;;;;14.47;5.37;;;13.60;99.90;;;;;;5075059;28;20187;-79
2023/08/08 02:21:54;;;;;;;12.97;5.20;;;13.60;99.90;;;;;;5074542;28;20183;-79
2023/08/08 02:24:20;;;;;;;10.43;5.40;;;13.60;99.90;;;;;;5074853;28;20165;-79
2023/08/08 02:26:46;;;;;;;9.03;4.67;;;13.60;99.90;;;;;;5074601;28;20654;-80
2023/08/08 02:29:11;;;;;;;10.33;5.10;;;13.60;99.90;;;;;;5075103;28;20165;-80
2023/08/08 02:31:37;;;;;;;10.13;6.10;;;13.60;99.90;;;;;;5074684;28;20208;-79
2023/08/08 02:34:02;;;;;;;6.37;5.13;;;13.50;99.90;;;;;;5073647;28;20176;-79
2023/08/08 02:36:28;;;;;;;10.27;5.57;;;13.50;99.90;;;;;;5074120;28;20182;-80
2023/08/08 02:38:54;;;;;;;13.00;5.17;;;13.50;99.90;;;;;;5074444;28;20232;-80
2023/08/08 02:41:20;;;;;;;8.07;4.70;;;13.50;99.90;;;;;;5073855;28;20760;-80
2023/08/08 02:43:46;;;;;;;11.63;5.60;;;13.50;99.90;;;;;;5074750;28;20156;-80
2023/08/08 02:46:12;;;;;;;11.67;5.13;;;13.40;99.90;;;;;;5074476;28;20195;-80
2023/08/08 02:48:37;;;;;;;15.40;5.97;;;13.40;99.90;;;;;;5074252;28;20226;-80
2023/08/08 02:51:03;;;;;;;13.33;5.20;;;13.40;99.90;;;;;;5073981;28;20192;-80
2023/08/08 02:53:28;;;;;;;10.00;5.53;;;13.40;99.90;;;;;;5074106;28;20204;-80
2023/08/08 02:55:54;;;;;;;13.77;5.93;;;13.30;99.90;;;;;;5074155;28;20608;-80
2023/08/08 02:58:19;;;;;;;11.83;5.33;;;13.30;99.90;;;;;;5074003;28;20178;-80
2023/08/08 03:00:45;;;;;;;9.07;5.30;;;13.30;99.90;;;;;;5074143;28;20230;-80
2023/08/08 03:03:11;;;;;;;16.60;6.00;;;13.30;99.90;;;;;;5074082;28;20212;-80
2023/08/08 03:05:36;;;;;;;14.97;5.60;;;13.30;99.90;;;;;;5073525;28;20252;-80
2023/08/08 03:08:02;;;;;;;10.30;5.17;;;13.30;99.90;;;;;;5072698;28;20212;-80
2023/08/08 03:10:27;;;;;;;13.97;5.67;;;13.30;99.90;;;;;;5072554;28;20195;-80
2023/08/08 03:12:53;;;;;;;9.30;5.90;;;13.30;99.90;;;;;;5074036;28;20172;-80
2023/08/08 03:15:19;;;;;;;11.67;5.40;;;13.30;99.90;;;;;;5072760;28;20562;-82
2023/08/08 03:17:44;;;;;;;18.27;6.23;;;13.30;99.90;;;;;;5074006;28;20212;-81
2023/08/08 03:20:10;;;;;;;18.00;6.13;;;13.20;99.90;;;;;;5073504;28;20169;-80
2023/08/08 03:22:37;;;;;;;17.47;6.30;;;13.20;99.90;;;;;;5073778;28;20179;-80
2023/08/08 03:25:04;;;;;;;12.47;6.23;;;13.10;99.90;;;;;;5073396;28;20196;-81
2023/08/08 03:27:30;;;;;;;14.70;6.13;;;13.10;99.90;;;;;;5073762;28;20196;-80
2023/08/08 03:29:55;;;;;;;16.20;6.50;;;13.20;99.90;;;;;;5073632;28;20259;-80
2023/08/08 03:32:22;;;;;;;16.73;6.60;;;13.20;99.90;;;;;;5073549;28;20215;-81
2023/08/08 03:34:48;;;;;;;15.83;6.37;;;13.10;99.90;;;;;;5072819;28;20191;-80
2023/08/08 03:37:13;;;;;;;13.23;7.00;;;13.10;99.90;;;;;;5073414;28;20164;-80
2023/08/08 03:39:39;;;;;;;17.97;6.73;;;13.10;99.90;;;;;;5073434;28;20176;-80
2023/08/08 03:42:05;;;;;;;9.93;6.40;;;13.10;99.90;;;;;;5073344;28;20260;-81
2023/08/08 03:44:30;;;;;;;13.80;6.17;;;13.10;99.90;;;;;;5072881;28;20541;-80
2023/08/08 03:46:56;;;;;;;13.73;6.43;;;13.10;99.90;;;;;;5072730;28;20318;-80
2023/08/08 03:49:22;;;;;;;16.50;7.13;;;13.10;99.90;;;;;;5072954;28;20525;-81
2023/08/08 03:51:48;;;;;;;13.97;6.60;;;13.00;99.90;;;;;;5073195;28;20223;-81
2023/08/08 03:54:15;;;;;;;14.43;6.90;;;13.00;99.90;;;;;;5073138;28;20729;-81
2023/08/08 03:56:41;;;;;;;12.80;6.70;;;13.00;99.90;;;;;;5072908;28;20176;-81
2023/08/08 03:59:06;;;;;;;13.00;6.30;;;13.00;99.90;;;;;;5071935;28;20525;-79
2023/08/08 04:01:32;;;;;;;13.23;6.93;;;13.00;99.90;;;;;;5073358;28;20180;-80
2023/08/08 04:03:58;;;;;;;11.10;6.67;;;13.00;99.90;;;;;;5072652;28;20192;-80
2023/08/08 04:06:24;;;;;;;17.33;6.80;;;12.90;99.90;;;;;;5073245;28;20184;-81
2023/08/08 04:08:49;;;;;;;12.80;7.17;;;12.90;99.90;;;;;;5072716;28;20180;-81
2023/08/08 04:11:15;;;;;;;14.17;7.17;;;13.00;99.90;;;;;;5072918;28;20157;-81
2023/08/08 04:13:40;;;;;;;18.30;7.10;;;12.90;99.90;;;;;;5073097;28;20173;-81
2023/08/08 04:16:06;;;;;;;20.83;7.43;;;13.00;99.90;;;;;;5073181;28;20165;-80
2023/08/08 04:18:31;;;;;;;10.23;6.47;;;12.90;99.90;;;;;;5072476;28;20646;-82
2023/08/08 04:20:57;;;;;;;18.03;7.53;;;12.90;99.90;;;;;;5073223;28;20172;-81
2023/08/08 04:23:25;;;;;;;14.33;7.60;;;13.00;99.90;;;;;;5072785;28;20532;-81
2023/08/08 04:25:54;;;;;;;15.90;7.50;;;12.90;99.90;;;;;;5073056;28;20168;-80
2023/08/08 04:28:19;;;;;;;18.00;7.53;;;12.90;99.90;;;;;;5072712;28;20208;-81
2023/08/08 04:30:45;;;;;;;16.80;7.37;;;13.00;99.90;;;;;;5071257;28;20171;-81
2023/08/08 04:33:10;;;;;;;15.60;7.23;;;12.90;99.90;;;;;;5072414;28;20203;-82
2023/08/08 04:35:36;;;;;;;15.37;7.83;;;13.00;99.90;;;;;;5071164;28;20179;-82
2023/08/08 04:38:02;;;;;;;14.60;7.23;;;13.10;99.90;;;;;;5072787;28;20579;-81
2023/08/08 04:40:27;;;;;;;16.53;7.47;;;13.20;99.90;;;;;;5072738;28;20213;-81
2023/08/08 04:42:53;;;;;;;15.80;6.50;;;13.40;99.90;;;;;;5070923;28;20576;-79
2023/08/08 04:45:20;;;;;;;14.43;6.60;;;13.50;99.90;;;;;;5072355;28;20628;-82
2023/08/08 04:47:46;;;;;;;16.33;8.50;;;13.70;99.90;;;;;;5072390;28;20223;-82
2023/08/08 04:50:12;;;;;;;15.53;9.13;;;13.90;99.90;;;;;;5072366;28;20176;-82
2023/08/08 04:52:37;;;;;;;15.10;9.40;;;14.00;99.90;;;;;;5072299;28;20507;-82
2023/08/08 04:55:05;;;;;;;22.27;10.37;;;14.10;99.90;;;;;;5072669;28;20169;-82
2023/08/08 04:57:30;;;;;;;20.20;9.80;;;14.30;99.90;;;;;;5076801;28;20245;-83
2023/08/08 04:59:56;;;;;;;18.80;8.50;;;14.50;99.90;;;;;;5076761;28;20636;-82
2023/08/08 05:02:22;;;;;;;24.90;8.67;;;14.80;99.90;;;;;;5075398;28;20222;-82
2023/08/08 05:04:48;;;;;;;11.93;7.03;;;15.20;99.90;;;;;;5076240;28;20165;-83
2023/08/08 05:07:13;;;;;;;13.60;5.67;;;15.40;99.90;;;;;;5076961;28;20204;-82
2023/08/08 05:09:40;;;;;;;9.93;5.13;;;15.80;99.90;;;;;;5078219;28;20175;-82
2023/08/08 05:12:06;;;;;;;16.63;5.03;;;16.10;99.90;;;;;;5079488;28;20165;-82
2023/08/08 05:14:31;;;;;;;10.57;4.53;;;16.50;99.90;;;;;;5079436;28;20226;-81
2023/08/08 05:16:57;;;;;;;10.40;4.23;;;16.70;99.90;;;;;;5086258;28;20235;-81
2023/08/08 05:19:24;;;;;;;9.53;4.37;;;17.20;99.90;;;;;;5085417;28;20196;-81
2023/08/08 05:21:49;;;;;;;9.40;4.37;;;17.40;99.90;;;;;;5081939;28;20587;-81
2023/08/08 05:24:15;;;;;;;10.33;4.20;;;17.50;99.90;;;;;;5080998;28;20196;-82
2023/08/08 05:26:41;;;;;;;11.70;4.80;;;17.50;99.90;;;;;;5079888;28;20189;-82
2023/08/08 05:29:06;;;;;;;11.87;4.13;;;17.50;99.90;;;;;;5081243;28;20169;-83
2023/08/08 05:31:32;;;;;;;8.57;4.35;;;17.70;99.90;;;;;;5080604;28;20596;-83
2023/08/08 05:33:57;;;;;;;10.63;4.03;;;18.20;99.90;;;;;;5079947;28;20173;-83
2023/08/08 05:36:23;;;;;;;10.18;3.85;;;18.60;99.90;;;;;;5080514;28;20168;-83
2023/08/08 05:38:49;;;;;;;11.98;3.97;;;18.90;99.90;;;;;;5080824;28;20563;-83
2023/08/08 05:41:14;;;;;;;11.50;4.00;;;19.70;99.90;;;;;;5078220;28;20274;-83
2023/08/08 05:43:40;;;;;;;9.05;3.90;;;19.80;99.90;;;;;;5081768;28;20207;-82
2023/08/08 05:46:06;;;;;;;12.40;4.10;;;20.00;99.90;;;;;;5077329;28;20172;-83
2023/08/08 05:48:31;;;;;;;11.73;4.15;;;20.60;99.90;;;;;;5076309;28;20178;-83
2023/08/08 05:50:58;;;;;;;10.13;3.65;;;21.10;99.90;;;;;;5075599;28;20172;-83
2023/08/08 05:53:24;;;;;;;10.98;3.75;;;20.50;1.00;;;;;;5078262;28;20189;-83
2023/08/08 05:55:50;;;;;;;10.77;3.72;;;20.30;1.00;;;;;;5077919;28;20233;-82
2023/08/08 05:58:15;;;;;;;10.32;4.20;;;19.80;1.00;;;;;;5076977;28;20676;-83
2023/08/08 06:00:42;;;;;;;8.70;3.90;;;19.30;5.30;;;;;;5076079;28;20647;-83
2023/08/08 06:03:08;;;;;;;10.02;3.90;;;18.60;19.80;;;;;;5076415;28;20169;-82
2023/08/08 06:05:34;;;;;;;11.23;3.55;;;18.20;35.30;;;;;;5075443;28;20256;-82
2023/08/08 06:07:59;;;;;;;13.35;4.68;;;17.90;42.50;;;;;;5075200;28;20204;-82
2023/08/08 06:10:25;;;;;;;15.30;4.07;;;17.80;44.60;;;;;;5075432;28;20172;-82
2023/08/08 06:12:50;;;;;;;9.07;3.80;;;17.90;51.30;;;;;;5076116;28;20188;-83
2023/08/08 06:15:16;;;;;;;8.90;3.60;;;19.10;34.10;;;;;;5076197;28;20169;-83
2023/08/08 06:17:42;;;;;;;9.52;3.72;;;20.40;6.10;;;;;;5075217;28;20170;-83
2023/08/08 06:20:09;;;;;;;13.35;3.60;;;21.20;1.00;;;;;;5076066;28;20576;-83
2023/08/08 06:22:35;;;;;;;11.05;4.00;;;22.20;1.00;;;;;;5081240;28;20172;-81
2023/08/08 06:25:00;;;;;;;9.02;3.67;;;23.70;1.00;;;;;;5078631;28;20187;-81
2023/08/08 06:27:26;;;;;;;10.88;4.20;;;24.70;1.00;;;;;;5074689;28;20292;-82
2023/08/08 06:29:52;;;;;;;8.65;3.70;;;25.40;99.90;;;;;;5075748;28;20169;-80
2023/08/08 06:32:17;;;;;;;9.93;3.50;;;24.80;1.00;;;;;;5075176;28;20184;-83
2023/08/08 06:34:43;;;;;;;11.18;3.75;;;24.90;1.00;;;;;;5075010;28;20608;-83
2023/08/08 06:37:08;;;;;;;11.68;3.78;;;24.10;1.00;;;;;;5074482;28;20615;-83
2023/08/08 06:39:34;;;;;;;11.00;3.60;;;23.50;1.00;;;;;;5074105;28;20230;-84
2023/08/08 06:42:00;;;;;;;10.32;3.22;;;23.30;1.00;;;;;;5073761;28;20735;-83
2023/08/08 06:44:26;;;;;;;9.88;3.60;;;23.40;1.00;;;;;;5074625;28;20532;-82
2023/08/08 06:46:51;;;;;;;11.30;3.35;;;23.00;1.00;;;;;;5074311;28;20208;-83
2023/08/08 06:49:17;;;;;;;12.77;3.75;;;22.80;1.00;;;;;;5072800;28;20173;-82
2023/08/08 06:51:42;;;;;;;6.80;3.17;;;22.50;1.00;;;;;;5074608;28;20199;-81
2023/08/08 06:54:08;;;;;;;7.03;3.45;;;22.30;1.00;;;;;;5074275;28;20188;-82
2023/08/08 06:56:34;;;;;;;8.27;3.20;;;21.60;1.00;;;;;;5073863;28;20192;-82
2023/08/08 06:58:59;;;;;;;7.53;3.33;;;21.20;1.00;;;;;;5074084;28;20730;-82
2023/08/08 07:01:25;;;;;;;8.57;3.20;;;21.50;1.00;;;;;;5073133;28;20173;-82
2023/08/08 07:03:50;;;;;;;9.45;3.15;;;21.60;1.00;;;;;;5073054;28;20561;-83
2023/08/08 07:06:19;;;;;;;13.55;4.20;;;21.40;1.00;;;;;;5073069;28;20172;-82
2023/08/08 07:08:45;;;;;;;9.20;3.25;;;21.40;1.00;;;;;;5072305;28;20257;-81
2023/08/08 07:11:10;;;;;;;9.63;3.47;;;21.30;1.00;;;;;;5072991;28;20203;-80
2023/08/08 07:13:36;;;;;;;7.05;3.13;;;20.90;1.00;;;;;;5073276;28;20176;-82
2023/08/08 07:16:02;;;;;;;8.32;3.33;;;20.90;1.00;;;;;;5073611;28;20172;-82
2023/08/08 07:18:27;;;;;;;9.75;4.65;;;21.00;1.00;;;;;;5071525;28;20173;-80
2023/08/08 07:20:53;;;;;;;9.77;3.28;;;20.50;1.00;;;;;;5072691;28;20176;-81
2023/08/08 07:23:19;;;;;;;10.63;3.00;;;20.30;1.00;;;;;;5071760;28;20210;-81
2023/08/08 07:25:47;;;;;;;11.27;3.38;;;20.20;1.00;;;;;;5072810;28;20534;-80
2023/08/08 07:28:14;;;;;;;8.73;3.40;;;20.00;2.50;;;;;;5072588;28;20200;-81
2023/08/08 07:30:40;;;;;;;10.40;3.88;;;19.90;2.20;;;;;;5072844;28;20215;-82
2023/08/08 07:33:09;;;;;;;9.02;3.60;;;19.80;11.20;;;;;;5073025;28;20186;-82
2023/08/08 07:35:35;;;;;;;10.40;3.67;;;19.60;13.20;;;;;;5072661;28;20256;-81
2023/08/08 07:38:01;;;;;;;10.02;3.78;;;19.80;10.40;;;;;;5072859;28;20608;-81
2023/08/08 07:40:28;;;;;;;8.60;3.78;;;19.90;10.40;;;;;;5072699;28;20640;-82
2023/08/08 07:42:53;;;;;;;8.32;3.60;;;20.10;8.80;;;;;;5080585;28;20219;-79
2023/08/08 07:45:19;;;;;;;9.13;3.63;;;20.00;4.50;;;;;;5073689;28;20699;-75
2023/08/08 07:47:45;;;;;;;9.20;3.80;;;20.00;6.50;;;;;;5076504;28;20714;-76
2023/08/08 07:50:11;;;;;;;6.88;4.00;;;20.00;1.00;;;;;;5072173;28;20536;-78
2023/08/08 07:52:38;;;;;;;12.55;3.80;;;19.60;10.50;;;;;;5072579;28;20191;-77
2023/08/08 07:55:04;;;;;;;8.50;3.90;;;19.60;14.60;;;;;;5071737;28;20168;-77
2023/08/08 07:57:31;;;;;;;8.57;3.80;;;20.00;10.40;;;;;;5072314;28;20222;-78
2023/08/08 07:59:57;;;;;;;14.82;4.32;;;19.70;11.40;;;;;;5071869;28;20160;-79
2023/08/08 08:02:22;;;;;;;10.38;4.22;;;19.40;19.30;;;;;;5072710;28;20168;-76
2023/08/08 08:04:48;;;;;;;10.77;4.15;;;19.60;13.80;;;;;;5088230;28;20692;-79
2023/08/08 08:07:14;;;;;;;9.80;4.13;;;19.60;16.10;;;;;;5103034;28;20195;-81
2023/08/08 08:09:42;;;;;;;15.35;4.22;;;19.70;11.80;;;;;;5095351;28;20172;-78
2023/08/08 08:12:08;;;;;;;10.27;4.10;;;19.60;12.40;;;;;;5108884;28;20179;-77
2023/08/08 08:14:34;;;;;;;11.63;4.05;;;19.60;14.30;;;;;;5092845;28;20199;-76
2023/08/08 08:16:59;;;;;;;10.52;4.78;;;19.30;23.20;;;;;;5092057;28;20195;-76
2023/08/08 08:19:25;;;;;;;7.63;3.92;;;19.40;21.00;;;;;;5104948;28;20225;-78
2023/08/08 08:21:51;;;;;;;8.52;4.10;;;19.30;21.20;;;;;;5095301;28;20203;-78
2023/08/08 08:24:16;;;;;;;13.93;4.50;;;19.30;19.70;;;;;;5108095;28;20164;-75
2023/08/08 08:26:42;;;;;;;11.57;4.10;;;19.30;25.40;;;;;;5098379;28;20278;-81
2023/08/08 08:29:08;;;;;;;10.25;4.10;;;19.40;21.40;;;;;;5100711;28;20651;-79
2023/08/08 08:31:33;;;;;;;6.65;3.67;;;19.30;22.90;;;;;;5108293;28;20167;-77
2023/08/08 08:33:59;;;;;;;10.98;4.00;;;19.30;23.20;;;;;;5099183;28;20646;-77
2023/08/08 08:36:26;;;;;;;9.25;4.13;;;19.50;20.30;;;;;;5111254;28;20174;-79
2023/08/08 08:38:51;;;;;;;5.80;3.20;;;19.60;12.40;;;;;;5103877;28;20300;-76
2023/08/08 08:41:19;;;;;;;9.75;3.70;;;19.70;12.00;;;;;;5103573;28;20247;-80
2023/08/08 08:43:46;;;;;;;10.02;3.70;;;19.60;17.20;;;;;;5113179;28;20221;-77
2023/08/08 08:46:14;;;;;;;8.13;3.40;;;19.50;13.70;;;;;;5095781;28;20213;-76
2023/08/08 08:48:40;;;;;;;11.32;3.75;;;19.50;18.80;;;;;;5116316;28;20236;-79
2023/08/08 08:51:07;;;;;;;9.25;3.70;;;19.90;14.20;;;;;;5105411;28;20226;-83
2023/08/08 08:53:34;;;;;;;8.70;3.40;;;20.20;5.70;;;;;;5110651;28;20658;-80
2023/08/08 08:56:01;;;;;;;8.27;3.33;;;20.70;1.00;;;;;;5100232;28;20179;-78
2023/08/08 08:58:28;;;;;;;5.38;2.90;;;20.80;1.00;;;;;;5112725;28;20167;-76
2023/08/08 09:00:54;;;;;;;11.77;3.45;;;21.10;1.00;;;;;;5105419;28;20183;-81
2023/08/08 09:03:20;;;;;;;11.20;4.10;;;21.10;1.00;;;;;;5102976;27;20264;-82
2023/08/08 09:05:48;;;;;;;7.75;3.25;;;21.40;1.00;;;;;;5112661;28;20194;-79
2023/08/08 09:08:15;;;;;;;6.35;3.20;;;21.10;1.00;;;;;;5082229;28;20725;-78
2023/08/08 09:10:41;;;;;;;7.35;3.13;;;21.10;1.00;;;;;;5110762;28;20190;-78
2023/08/08 09:13:06;;;;;;;8.15;3.00;;;21.70;1.00;;;;;;5106020;28;20232;-78
2023/08/08 09:15:33;;;;;;;11.70;3.13;;;22.50;1.00;;;;;;5115393;28;20175;-79
2023/08/08 09:18:00;;;;;;;9.90;3.10;;;23.10;1.00;;;;;;5099798;28;20168;-80
2023/08/08 09:20:30;;;;;;;8.15;3.17;;;22.70;1.00;;;;;;5095458;28;20213;-78
2023/08/08 09:22:56;;;;;;;6.35;3.03;;;22.90;1.00;;;;;;5105356;28;20170;-79
2023/08/08 09:25:21;;;;;;;7.47;3.38;;;23.10;1.00;;;;;;5104519;28;20639;-79
2023/08/08 09:27:47;;;;;;;8.10;2.85;;;23.00;1.00;;;;;;5113813;28;20211;-76
2023/08/08 09:30:14;;;;;;;5.07;3.13;;;23.10;1.00;;;;;;5098439;28;20163;-79
2023/08/08 09:32:40;;;;;;;8.73;2.80;;;22.70;1.00;;;;;;5108038;28;20176;-77
2023/08/08 09:35:09;;;;;;;7.78;2.50;;;23.30;1.00;;;;;;5103726;28;20630;-74
2023/08/08 09:37:35;;;;;;;6.13;2.65;;;23.50;1.00;;;;;;5099788;28;20176;-78
2023/08/08 09:40:07;;;;;;;5.07;2.50;;;24.40;1.00;;;;;;5111627;28;20525;-77
2023/08/08 09:42:34;;;;;;;6.93;2.50;;;24.50;1.00;;;;;;5100102;28;20222;-78
2023/08/08 09:45:01;;;;;;;6.28;2.30;;;24.70;1.00;;;;;;5104321;28;20168;-77
2023/08/08 09:47:31;;;;;;;7.50;2.85;;;24.70;1.00;;;;;;5109094;28;20205;-84
2023/08/08 09:50:06;;;;;;;4.80;2.67;;;23.80;1.00;;;;;;5101689;28;20172;-83
2023/08/08 09:52:34;;;;;;;6.25;2.78;;;23.90;1.00;;;;;;5094410;28;20203;-80
2023/08/08 09:55:00;;;;;;;6.97;2.58;;;23.50;1.00;;;;;;5105761;28;20167;-77
2023/08/08 09:57:26;;;;;;;4.40;2.17;;;22.70;1.00;;;;;;5100682;28;20176;-77
2023/08/08 09:59:52;;;;;;;6.35;2.92;;;22.80;1.00;;;;;;5110660;28;20175;-80
2023/08/08 10:02:19;;;;;;;5.20;2.53;;;23.00;1.00;;;;;;5096286;28;20196;-76
2023/08/08 10:04:46;;;;;;;7.82;2.70;;;22.70;1.00;;;;;;5114500;27;20208;-78
2023/08/08 10:07:12;;;;;;;8.90;2.50;;;22.00;1.00;;;;;;5102046;28;20207;-78
2023/08/08 10:09:38;;;;;;;5.07;2.60;;;21.80;1.00;;;;;;5110038;28;20183;-78
2023/08/08 10:12:08;;;;;;;4.63;2.42;;;21.70;1.00;;;;;;5097558;28;20168;-78
2023/08/08 10:14:37;;;;;;;4.22;2.42;;;21.30;1.00;;;;;;5107872;28;20187;-78
2023/08/08 10:17:04;;;;;;;6.47;2.65;;;21.10;1.00;;;;;;5097224;28;20160;-78
2023/08/08 10:19:30;;;;;;;6.68;2.78;;;20.90;1.00;;;;;;5107790;28;20167;-77
2023/08/08 10:22:03;;;;;;;5.55;2.50;;;21.10;1.00;;;;;;5097239;28;20175;-77
2023/08/08 10:24:35;;;;;;;5.15;2.20;;;21.30;1.00;;;;;;5095296;28;20172;-77
2023/08/08 10:27:02;;;;;;;3.80;2.20;;;21.00;1.00;;;;;;5103861;28;20207;-76
2023/08/08 10:29:29;;;;;;;3.53;2.40;;;20.90;1.00;;;;;;5099888;28;20164;-77
2023/08/08 10:32:03;;;;;;;5.97;2.05;;;20.80;1.00;;;;;;5110380;28;20167;-77
2023/08/08 10:34:43;;;;;;;4.93;2.10;;;20.80;1.00;;;;;;5099408;28;20214;-74
2023/08/08 10:37:17;;;;;;;3.03;2.20;;;20.60;1.00;;;;;;5101440;28;20176;-77
2023/08/08 10:39:59;;;;;;;3.03;2.25;;;20.70;1.00;;;;;;5111649;28;20196;-76
2023/08/08 10:42:28;;;;;;;3.30;1.90;;;21.00;1.00;;;;;;5083168;28;20210;-76
2023/08/08 10:44:58;;;;;;;3.65;2.05;;;21.00;1.00;;;;;;5104569;28;20168;-79
2023/08/08 10:47:30;;;;;;;2.45;1.90;;;20.70;1.00;;;;;;5107012;28;20224;-76
2023/08/08 10:50:12;;;;;;;4.80;1.92;;;20.50;1.00;;;;;;5096700;28;20287;-76
2023/08/08 10:52:51;;;;;;;2.47;1.98;;;20.30;1.00;;;;;;5106869;27;20196;-74
2023/08/08 10:55:27;;;;;;;3.33;2.20;;;20.00;1.00;;;;;;5097529;28;20183;-78
2023/08/08 10:58:05;;;;;;;3.58;2.00;;;19.90;1.00;;;;;;5094385;28;20177;-79
2023/08/08 11:00:34;;;;;;;4.53;1.90;;;19.70;1.00;;;;;;5091902;28;20164;-78
2023/08/08 11:03:01;;;;;;;3.35;2.13;;;19.70;1.00;;;;;;5102698;28;20171;-79
2023/08/08 11:05:30;;;;;;;4.32;2.15;;;19.60;1.00;;;;;;5112655;28;20167;-78
2023/08/08 11:07:57;;;;;;;4.18;2.10;;;19.80;1.00;;;;;;5113150;27;20203;-76
2023/08/08 11:10:22;;;;;;;2.90;2.13;;;19.80;1.00;;;;;;5113860;28;20167;-82
2023/08/08 11:13:03;;;;;;;4.20;1.90;;;20.00;1.00;;;;;;5113133;28;20235;-78
2023/08/08 11:15:29;;;;;;;2.83;1.83;;;20.70;1.00;;;;;;5113051;28;20198;-82
2023/08/08 11:17:56;;;;;;;2.38;2.05;;;21.40;1.00;;;;;;5112245;28;20201;-82
2023/08/08 11:20:23;;;;;;;4.32;1.88;;;21.90;1.00;;;;;;5087359;28;20604;-78
2023/08/08 11:22:56;;;;;;;4.10;2.00;;;22.20;1.00;;;;;;5074246;28;20192;-77
2023/08/08 11:25:25;;;;;;;4.07;1.88;;;22.80;1.00;;;;;;5072403;28;20576;-77
2023/08/08 11:27:52;;;;;;;4.47;1.98;;;22.30;1.00;;;;;;5083311;28;20218;-83
2023/08/08 11:30:19;;;;;;;2.03;1.83;;;22.60;1.00;;;;;;5093148;28;20254;-80
2023/08/08 11:32:46;;;;;;;4.93;1.77;;;22.80;1.00;;;;;;5096296;28;20192;-80
2023/08/08 11:35:15;;;;;;;1.80;1.38;;;22.60;1.00;;;;;;5095079;28;20164;-79
2023/08/08 11:37:41;;;;;;;3.25;1.67;;;22.20;99.90;;;;;;5091891;28;20237;-80
2023/08/08 11:40:08;;;;;;;2.22;1.52;;;22.10;99.90;;;;;;5096657;28;20197;-77
2023/08/08 11:42:34;;;;;;;1.80;1.33;;;22.10;99.90;;;;;;5086626;28;20228;-79
2023/08/08 11:45:00;;;;;;;2.25;1.70;;;21.60;99.90;;;;;;5081807;28;20191;-80
2023/08/08 11:47:26;;;;;;;3.13;1.58;;;21.70;1.00;;;;;;5072352;28;20208;-80
2023/08/08 11:49:52;;;;;;;2.70;1.58;;;21.70;1.00;;;;;;5072992;28;20165;-75
2023/08/08 11:52:19;;;;;;;4.25;1.70;;;21.90;99.90;;;;;;5082451;28;20643;-77
2023/08/08 11:54:50;;;;;;;3.75;1.83;;;21.70;1.00;;;;;;5073412;28;20240;-74
2023/08/08 11:57:16;;;;;;;3.17;1.70;;;21.70;1.00;;;;;;5072098;28;20172;-78
2023/08/08 11:59:42;;;;;;;4.15;1.90;;;22.00;1.00;;;;;;5081120;28;20182;-78
2023/08/08 12:02:09;;;;;;;3.47;1.65;;;22.50;99.90;;;;;;5093052;28;20623;-77
2023/08/08 12:04:35;;;;;;;3.38;1.80;;;22.80;99.90;;;;;;5092758;28;20508;-79
2023/08/08 12:07:03;;;;;;;2.80;1.63;;;22.50;1.00;;;;;;5097874;28;20199;-76
2023/08/08 12:09:32;;;;;;;3.20;1.80;;;22.60;1.00;;;;;;5096517;28;20278;-79
2023/08/08 12:12:02;;;;;;;2.30;1.98;;;22.60;99.90;;;;;;5097120;28;20175;-79
2023/08/08 12:14:28;;;;;;;3.20;1.52;;;22.50;1.00;;;;;;5090422;28;20173;-75
2023/08/08 12:16:55;;;;;;;1.90;1.40;;;22.40;1.00;;;;;;5084793;28;20180;-77
2023/08/08 12:19:24;;;;;;;3.55;1.73;;;22.30;1.00;;;;;;5076049;28;20169;-78
2023/08/08 12:21:51;;;;;;;2.28;1.58;;;22.40;1.00;;;;;;5076186;28;20569;-79
2023/08/08 12:24:20;;;;;;;3.42;1.83;;;22.70;1.00;;;;;;5102861;28;20526;-77
2023/08/08 12:26:45;;;;;;;4.53;1.80;;;22.90;99.90;;;;;;5113386;28;20206;-75
2023/08/08 12:29:12;;;;;;;3.80;1.80;;;22.90;99.90;;;;;;5075336;28;20538;-78
2023/08/08 12:31:38;;;;;;;3.17;1.70;;;22.70;99.90;;;;;;5076156;28;20172;-79
2023/08/08 12:34:04;;;;;;;4.35;2.20;;;22.80;99.90;;;;;;5075161;28;20177;-79
2023/08/08 12:36:30;;;;;;;5.65;2.00;;;22.70;99.90;;;;;;5075210;28;20289;-80
2023/08/08 12:38:56;;;;;;;4.20;1.75;;;22.60;1.00;;;;;;5075519;28;20263;-80
2023/08/08 12:41:24;;;;;;;4.22;1.80;;;22.90;99.90;;;;;;5076179;28;20687;-79
2023/08/08 12:43:50;;;;;;;3.80;1.98;;;22.80;99.90;;;;;;5076851;28;20250;-80